Time;durP1;ratioP1;P1;durP2;ratioP2;P2;SDS_P1;SDS_P2;PMS_P1;PMS_P2;Temp;Humidity;BMP_temperature;BMP_pressure;BME280_temperature;BME280_humidity;BME280_pressure;Samples;Min_cycle;Max_cycle;Signal;HPM_P1;HPM_P2
2023/06/19 00:01:38;;;;;;;7.82;7.03;;;;;;;;;;4961022;28;20061;-85
2023/06/19 00:04:15;;;;;;;8.05;7.25;;;;;;;;;;4939368;28;20109;-84
2023/06/19 00:07:25;;;;;;;8.68;7.72;;;;;;;;;;4962365;28;20466;-85
2023/06/19 00:10:06;;;;;;;8.73;7.88;;;;;;;;;;4961289;28;20504;-84
2023/06/19 00:13:05;;;;;;;8.98;8.05;;;;;;;;;;4966171;28;20037;-84
2023/06/19 00:15:35;;;;;;;8.30;7.50;;;;;;;;;;4966018;28;20329;-85
2023/06/19 00:18:07;;;;;;;8.27;7.57;;;;;;;;;;4955307;28;20546;-85
2023/06/19 00:20:40;;;;;;;7.95;7.15;;;;;;;;;;4969149;28;20440;-84
2023/06/19 00:23:16;;;;;;;8.52;7.35;;;;;;;;;;4948201;28;20116;-84
2023/06/19 00:25:57;;;;;;;8.13;7.18;;;;;;;;;;4935751;28;20393;-84
2023/06/19 00:28:46;;;;;;;7.68;6.85;;;;;;;;;;4966856;28;20468;-84
2023/06/19 00:31:13;;;;;;;7.82;7.13;;;;;;;;;;4951690;28;20042;-84
2023/06/19 00:33:48;;;;;;;7.78;7.07;;;;;;;;;;4929200;28;20057;-84
2023/06/19 00:36:50;;;;;;;;;;;;;;;;;;;;;
2023/06/19 00:39:25;;;;;;;7.50;6.80;;;;;;;;;;4952487;28;20175;-84
2023/06/19 00:41:54;;;;;;;8.05;7.25;;;;;;;;;;4936359;28;20527;-84
2023/06/19 00:44:26;;;;;;;8.48;7.10;;;;;;;;;;4952426;28;20044;-84
2023/06/19 00:46:56;;;;;;;7.88;7.18;;;;;;;;;;4936113;28;20460;-84
2023/06/19 00:49:53;;;;;;;8.93;8.07;;;;;;;;;;4958057;28;20054;-84
2023/06/19 00:52:22;;;;;;;8.07;7.38;;;;;;;;;;4949733;28;20446;-84
2023/06/19 00:54:54;;;;;;;8.40;7.05;;;;;;;;;;4938531;28;20087;-84
2023/06/19 00:57:21;;;;;;;8.25;7.45;;;;;;;;;;4937235;28;20046;-84
2023/06/19 01:00:08;;;;;;;;;;;;;;;;;;;;;
2023/06/19 01:06:12;;;;;;;;;;;;;;;;;;;;;
2023/06/19 01:08:59;;;;;;;7.57;6.88;;;;;;;;;;4958333;28;20497;-84
2023/06/19 01:11:42;;;;;;;8.02;7.25;;;;;;;;;;4940590;28;20042;-84
2023/06/19 01:17:45;;;;;;;8.68;7.57;;;;;;;;;;4972662;28;20050;-85
2023/06/19 01:20:23;;;;;;;8.27;7.47;;;;;;;;;;4957113;28;20050;-84
2023/06/19 01:22:56;;;;;;;8.05;7.35;;;;;;;;;;4941757;28;20072;-84
2023/06/19 01:25:27;;;;;;;8.55;7.65;;;;;;;;;;4898269;29;20202;-84
2023/06/19 01:31:40;;;;;;;7.65;7.00;;;;;;;;;;4929127;28;20046;-84
2023/06/19 01:34:14;;;;;;;8.65;7.40;;;;;;;;;;4910914;28;20621;-84
2023/06/19 01:37:05;;;;;;;7.53;6.82;;;;;;;;;;4901024;28;20057;-84
2023/06/19 01:40:05;;;;;;;8.43;7.50;;;;;;;;;;4914723;28;20051;-84
2023/06/19 01:42:37;;;;;;;9.60;7.68;;;;;;;;;;4921155;28;20035;-83
2023/06/19 01:45:04;;;;;;;8.07;7.38;;;;;;;;;;4875609;28;20146;-83
2023/06/19 01:47:30;;;;;;;7.70;7.00;;;;;;;;;;4885857;28;20098;-83
2023/06/19 01:49:57;;;;;;;7.95;7.13;;;;;;;;;;4925207;28;20494;-83
2023/06/19 01:52:23;;;;;;;8.32;7.43;;;;;;;;;;4896093;28;20383;-83
2023/06/19 01:54:49;;;;;;;9.75;8.00;;;;;;;;;;4902961;28;20469;-83
2023/06/19 01:57:15;;;;;;;8.10;7.30;;;;;;;;;;4877573;28;20159;-83
2023/06/19 01:59:44;;;;;;;9.57;7.28;;;;;;;;;;4913929;28;20054;-83
2023/06/19 02:02:36;;;;;;;8.07;7.28;;;;;;;;;;4925601;28;20460;-83
2023/06/19 02:05:03;;;;;;;7.38;6.68;;;;;;;;;;4965218;28;20054;-83
2023/06/19 02:07:29;;;;;;;7.53;6.82;;;;;;;;;;4975985;28;20041;-83
2023/06/19 02:09:55;;;;;;;8.23;7.05;;;;;;;;;;4941888;28;20591;-83
2023/06/19 02:12:24;;;;;;;7.97;7.28;;;;;;;;;;4962674;28;20044;-83
2023/06/19 02:14:50;;;;;;;9.13;7.07;;;;;;;;;;4959612;28;20057;-83
2023/06/19 02:17:16;;;;;;;7.47;6.78;;;;;;;;;;4938759;28;20038;-83
2023/06/19 02:19:45;;;;;;;7.38;6.78;;;;;;;;;;4937876;28;20499;-83
2023/06/19 02:22:55;;;;;;;7.88;6.82;;;;;;;;;;4943102;28;20132;-83
2023/06/19 02:25:21;;;;;;;7.40;6.80;;;;;;;;;;4976203;28;20030;-83
2023/06/19 02:27:48;;;;;;;7.95;7.18;;;;;;;;;;4934719;28;20046;-83
2023/06/19 02:30:17;;;;;;;7.03;6.43;;;;;;;;;;4939211;28;20143;-83
2023/06/19 02:32:43;;;;;;;7.40;6.80;;;;;;;;;;4932855;28;20092;-83
2023/06/19 02:35:13;;;;;;;7.47;6.75;;;;;;;;;;4937837;28;20161;-83
2023/06/19 02:37:40;;;;;;;7.80;6.95;;;;;;;;;;4936764;28;20042;-83
2023/06/19 02:40:17;;;;;;;7.15;6.55;;;;;;;;;;4961302;28;20582;-83
2023/06/19 02:42:43;;;;;;;7.37;6.77;;;;;;;;;;4951151;28;20058;-83
2023/06/19 02:45:09;;;;;;;8.50;6.63;;;;;;;;;;4938548;28;21183;-83
2023/06/19 02:47:38;;;;;;;7.53;6.93;;;;;;;;;;4958270;28;20046;-83
2023/06/19 02:50:07;;;;;;;7.60;6.80;;;;;;;;;;4954664;28;20378;-83
2023/06/19 02:52:33;;;;;;;8.32;6.65;;;;;;;;;;4941273;28;20042;-83
2023/06/19 02:57:59;;;;;;;7.80;7.10;;;;;;;;;;4926533;28;20043;-83
2023/06/19 03:00:28;;;;;;;7.88;7.28;;;;;;;;;;4934006;28;20054;-83
2023/06/19 03:02:58;;;;;;;9.20;7.40;;;;;;;;;;4929875;28;20057;-83
2023/06/19 03:05:27;;;;;;;7.70;7.00;;;;;;;;;;4939935;28;20072;-83
2023/06/19 03:07:53;;;;;;;;;;;;;;;;;;4947028;28;20050;-83
2023/06/19 03:10:21;;;;;;;8.40;7.60;;;;;;;;;;4955129;28;19924;-83
2023/06/19 03:12:47;;;;;;;7.53;6.75;;;;;;;;;;4949669;28;20056;-83
2023/06/19 03:15:16;;;;;;;7.75;6.95;;;;;;;;;;4969941;28;20564;-83
2023/06/19 03:17:42;;;;;;;7.30;6.70;;;;;;;;;;4934017;28;20037;-83
2023/06/19 03:20:11;;;;;;;7.75;6.80;;;;;;;;;;4948245;28;20052;-83
2023/06/19 03:22:40;;;;;;;9.00;7.47;;;;;;;;;;4942758;28;20042;-83
2023/06/19 03:25:12;;;;;;;8.10;6.95;;;;;;;;;;4937482;28;20555;-83
2023/06/19 03:27:47;;;;;;;7.43;6.82;;;;;;;;;;4936663;28;20374;-83
2023/06/19 03:30:13;;;;;;;8.02;7.20;;;;;;;;;;4949324;28;20311;-83
2023/06/19 03:32:40;;;;;;;7.43;6.72;;;;;;;;;;4952158;28;20490;-83
2023/06/19 03:35:06;;;;;;;7.97;7.18;;;;;;;;;;4960183;28;20157;-83
2023/06/19 03:38:21;;;;;;;;;;;;;;;;;;;;;
2023/06/19 03:41:24;;;;;;;7.75;6.95;;;;;;;;;;4906771;28;20040;-83
2023/06/19 03:44:06;;;;;;;7.80;6.93;;;;;;;;;;4909342;28;20047;-83
2023/06/19 03:50:09;;;;;;;7.72;7.07;;;;;;;;;;4910131;28;20630;-83
2023/06/19 03:52:44;;;;;;;7.78;6.80;;;;;;;;;;4940214;28;20090;-83
2023/06/19 03:55:13;;;;;;;7.20;6.55;;;;;;;;;;4932916;28;20042;-83
2023/06/19 03:57:39;;;;;;;9.90;6.93;;;;;;;;;;4934928;28;20043;-83
2023/06/19 04:00:07;;;;;;;8.40;7.18;;;;;;;;;;4944854;28;20037;-83
2023/06/19 04:02:34;;;;;;;;;;;;;;;;;;4933517;28;20073;-83
2023/06/19 04:05:00;;;;;;;7.85;7.05;;;;;;;;;;4961148;28;19921;-84
2023/06/19 04:07:44;;;;;;;7.68;6.88;;;;;;;;;;4938385;28;20133;-83
2023/06/19 04:10:12;;;;;;;8.15;7.35;;;;;;;;;;4955974;28;20060;-83
2023/06/19 04:13:17;;;;;;;8.13;6.93;;;;;;;;;;4936356;28;20687;-83
2023/06/19 04:15:47;;;;;;;7.97;7.28;;;;;;;;;;4943286;28;20057;-83
2023/06/19 04:18:19;;;;;;;7.45;6.50;;;;;;;;;;4936999;28;20133;-83
2023/06/19 04:20:48;;;;;;;7.70;6.82;;;;;;;;;;4942014;28;20477;-83
2023/06/19 04:27:12;;;;;;;10.68;7.00;;;;;;;;;;4922553;28;20225;-83
2023/06/19 04:30:03;;;;;;;8.50;6.78;;;;;;;;;;5073460;27;21620;-82
2023/06/19 04:32:30;;;;;;;7.22;6.05;;;;;;;;;;5043774;28;20059;-82
2023/06/19 04:34:57;;;;;;;7.55;6.25;;;;;;;;;;5046762;28;20391;-82
2023/06/19 04:37:23;;;;;;;6.85;6.15;;;;;;;;;;5089559;28;20079;-82
2023/06/19 04:40:09;;;;;;;7.30;6.60;;;;;;;;;;5086775;27;20075;-83
2023/06/19 04:42:47;;;;;;;6.30;5.75;;;;;;;;;;5074986;28;20485;-82
2023/06/19 04:45:13;;;;;;;8.32;5.70;;;;;;;;;;5065159;28;20036;-81
2023/06/19 04:48:11;;;;;;;6.93;5.05;;;;;;;;;;5080457;28;20032;-82
2023/06/19 04:57:58;;;;;;;;;;;;;;;;;;4899148;28;20122;-83
2023/06/19 05:00:26;;;;;;;8.15;3.95;;;;;;;;;;4949832;28;19925;-82
2023/06/19 05:02:52;;;;;;;5.13;4.00;;;;;;;;;;4947261;28;20395;-82
2023/06/19 05:05:27;;;;;;;4.78;3.42;;;;;;;;;;4973154;28;20061;-82
2023/06/19 05:07:54;;;;;;;4.93;3.70;;;;;;;;;;4935121;28;20145;-82
2023/06/19 05:10:22;;;;;;;3.65;3.35;;;;;;;;;;4949860;28;20540;-82
2023/06/19 05:16:19;;;;;;;5.03;3.47;;;;;;;;;;5031122;28;20387;-81
2023/06/19 05:18:53;;;;;;;6.47;3.40;;;;;;;;;;5037243;28;20052;-81
2023/06/19 05:21:19;;;;;;;8.68;3.58;;;;;;;;;;5024275;28;20435;-81
2023/06/19 05:23:50;;;;;;;6.65;3.60;;;;;;;;;;5043285;28;20040;-81
2023/06/19 05:26:19;;;;;;;5.13;3.30;;;;;;;;;;5081767;28;21356;-79
2023/06/19 05:28:46;;;;;;;3.88;3.25;;;;;;;;;;5054822;28;20470;-82
2023/06/19 05:31:12;;;;;;;5.38;3.90;;;;;;;;;;5028459;28;20462;-80
2023/06/19 05:33:39;;;;;;;4.10;3.70;;;;;;;;;;5039575;28;20036;-79
2023/06/19 05:36:15;;;;;;;4.85;3.92;;;;;;;;;;5025959;28;20041;-80
2023/06/19 05:39:15;;;;;;;5.45;3.72;;;;;;;;;;5055777;28;20545;-81
2023/06/19 05:42:17;;;;;;;;;;;;;;;;;;;;;
2023/06/19 05:45:15;;;;;;;3.78;3.47;;;;;;;;;;5067750;27;20594;-80
2023/06/19 05:48:20;;;;;;;4.43;4.03;;;;;;;;;;5038709;28;20066;-81
2023/06/19 05:51:01;;;;;;;5.07;3.85;;;;;;;;;;5085034;27;20048;-81
2023/06/19 05:54:04;;;;;;;;;;;;;;;;;;;;;
2023/06/19 05:56:45;;;;;;;5.68;3.85;;;;;;;;;;5020103;28;20055;-81
2023/06/19 05:59:14;;;;;;;5.25;4.10;;;;;;;;;;5021655;28;20147;-81
2023/06/19 06:28:14;;;;;;;7.15;3.80;;;;;;;;;;4978696;28;20112;-85
2023/06/19 06:31:38;;;;;;;4.40;3.97;;;;;;;;;;4940720;28;20054;-84
2023/06/19 06:34:55;;;;;;;4.50;4.10;;;;;;;;;;4919662;29;20102;-85
2023/06/19 06:41:14;;;;;;;3.80;3.50;;;;;;;;;;4825343;29;20058;-84
2023/06/19 06:44:24;;;;;;;3.97;3.58;;;;;;;;;;4823846;29;20061;-85
2023/06/19 06:47:44;;;;;;;;;;;;;;;;;;;;;
2023/06/19 06:50:44;;;;;;;4.78;4.13;;;;;;;;;;4889321;29;20060;-85
2023/06/19 06:53:34;;;;;;;;;;;;;;;;;;;;;
2023/06/19 06:56:52;;;;;;;;;;;;;;;;;;;;;
2023/06/19 07:06:27;;;;;;;5.68;5.18;;;;;;;;;;4900268;29;20102;-86
2023/06/19 07:09:31;;;;;;;5.93;5.43;;;;;;;;;;4875575;29;20474;-86
2023/06/19 07:12:55;;;;;;;6.38;5.72;;;;;;;;;;4864682;29;20168;-83
2023/06/19 07:16:15;;;;;;;;;;;;;;;;;;;;;
2023/06/19 07:19:29;;;;;;;;;;;;;;;;;;;;;
2023/06/19 07:33:37;;;;;;;;;;;;;;;;;;;;;
2023/06/19 07:40:31;;;;;;;;;;;;;;;;;;;;;
2023/06/19 07:50:36;;;;;;;8.85;7.32;;;;;;;;;;4817421;29;20054;-86
2023/06/19 07:54:03;;;;;;;10.25;6.75;;;;;;;;;;4899799;28;20047;-85
2023/06/19 08:07:15;;;;;;;;;;;;;;;;;;;;;
2023/06/19 08:13:45;;;;;;;;;;;;;;;;;;;;;
2023/06/19 08:19:59;;;;;;;;;;;;;;;;;;;;;
2023/06/19 08:22:50;;;;;;;7.63;6.90;;;;;;;;;;4990456;28;20187;-86
2023/06/19 08:32:59;;;;;;;;;;;;;;;;;;;;;
2023/06/19 08:36:09;;;;;;;;;;;;;;;;;;;;;
2023/06/19 08:46:08;;;;;;;8.80;8.00;;;;;;;;;;4888209;28;20053;-83
2023/06/19 08:48:39;;;;;;;9.63;8.70;;;;;;;;;;4922282;28;20118;-84
2023/06/19 08:51:18;;;;;;;11.15;10.10;;;;;;;;;;5001295;28;20046;-84
2023/06/19 08:54:01;;;;;;;10.20;9.43;;;;;;;;;;4998978;28;20487;-84
2023/06/19 08:56:34;;;;;;;9.95;9.10;;;;;;;;;;5014874;28;20059;-85
2023/06/19 08:59:36;;;;;;;9.98;9.27;;;;;;;;;;5028845;28;20067;-88
2023/06/19 09:03:00;;;;;;;;;;;;;;;;;;;;;
2023/06/19 09:09:39;;;;;;;;;;;;;;;;;;;;;
2023/06/19 09:12:36;;;;;;;;;;;;;;;;;;;;;
2023/06/19 09:15:57;;;;;;;11.88;10.80;;;;;;;;;;4892154;29;20048;-86
2023/06/19 09:22:49;;;;;;;9.77;8.88;;;;;;;;;;4810125;29;20057;-83
2023/06/19 09:26:09;;;;;;;8.95;8.10;;;;;;;;;;4772111;29;20055;-83
2023/06/19 09:42:49;;;;;;;7.30;6.55;;;;;;;;;;4789303;29;20044;-85
2023/06/19 09:46:17;;;;;;;8.43;7.63;;;;;;;;;;4932089;28;20057;-84
2023/06/19 09:59:36;;;;;;;7.30;6.00;;;;;;;;;;4803373;29;20577;-85
2023/06/19 10:02:22;;;;;;;7.45;6.18;;;;;;;;;;4756874;29;20932;-85
2023/06/19 10:04:57;;;;;;;7.95;5.90;;;;;;;;;;4783358;29;20064;-85
2023/06/19 10:07:50;;;;;;;8.45;6.85;;;;;;;;;;4833539;29;20058;-86
2023/06/19 10:10:29;;;;;;;6.45;5.85;;;;;;;;;;4806543;29;20057;-85
2023/06/19 10:13:20;;;;;;;7.80;6.72;;;;;;;;;;4827269;29;20042;-86
2023/06/19 10:16:07;;;;;;;8.85;6.43;;;;;;;;;;4885627;29;20079;-85
2023/06/19 10:18:53;;;;;;;11.10;7.43;;;;;;;;;;4936490;28;20122;-85
2023/06/19 10:21:31;;;;;;;7.55;6.93;;;;;;;;;;4942976;28;20493;-86
2023/06/19 10:24:02;;;;;;;8.82;7.93;;;;;;;;;;4931348;28;20050;-85
2023/06/19 10:26:44;;;;;;;9.82;8.80;;;;;;;;;;4931394;28;20050;-85
2023/06/19 10:29:27;;;;;;;10.70;8.82;;;;;;;;;;4966717;28;20468;-85
2023/06/19 10:31:56;;;;;;;9.98;8.90;;;;;;;;;;4969286;28;20058;-85
2023/06/19 10:34:35;;;;;;;17.35;9.43;;;;;;;;;;4931942;28;20101;-85
2023/06/19 10:37:01;;;;;;;10.07;7.82;;;;;;;;;;4948176;28;22016;-85
2023/06/19 10:39:32;;;;;;;10.65;7.70;;;;;;;;;;4936919;28;20089;-84
2023/06/19 10:41:58;;;;;;;7.72;6.88;;;;;;;;;;4976634;28;20453;-84
2023/06/19 10:44:26;;;;;;;8.77;7.00;;;;;;;;;;4946152;28;20135;-84
2023/06/19 11:00:41;;;;;;;;;;;;;;;;;;;;;
2023/06/19 11:04:14;;;;;;;5.97;5.38;;;;;;;;;;4974099;28;20071;-86
2023/06/19 11:07:38;;;;;;;;;;;;;;;;;;;;;
2023/06/19 11:11:01;;;;;;;;;;;;;;;;;;;;;
2023/06/19 11:14:11;;;;;;;;;;;;;;;;;;;;;
2023/06/19 11:17:34;;;;;;;5.85;5.25;;;;;;;;;;4953838;28;20064;-87
2023/06/19 11:37:44;;;;;;;;;;;;;;;;;;;;;
2023/06/19 11:44:10;;;;;;;7.15;6.45;;;;;;;;;;4843856;29;20052;-89
2023/06/19 12:04:53;;;;;;;;;;;;;;;;;;;;;
2023/06/19 12:12:31;;;;;;;8.60;6.35;;;;;;;;;;4858716;29;20245;-88
2023/06/19 12:15:14;;;;;;;;;;;;;;;;;;;;;
2023/06/19 12:20:30;;;;;;;8.68;7.85;;;;;;;;;;4921074;26;20625;-84
2023/06/19 12:22:57;;;;;;;7.72;7.00;;;;;;;;;;4997494;28;20087;-85
2023/06/19 12:25:34;;;;;;;9.10;6.88;;;;;;;;;;5003355;28;20056;-85
2023/06/19 12:28:05;;;;;;;6.57;5.97;;;;;;;;;;4997811;28;20439;-84
2023/06/19 12:30:37;;;;;;;7.40;6.50;;;;;;;;;;4988872;28;20041;-84
2023/06/19 12:33:10;;;;;;;7.45;6.60;;;;;;;;;;4998186;28;20137;-84
2023/06/19 12:36:00;;;;;;;7.70;6.43;;;;;;;;;;5014763;28;20179;-84
2023/06/19 12:38:40;;;;;;;7.70;6.28;;;;;;;;;;5032616;28;20080;-85
2023/06/19 12:41:16;;;;;;;6.18;5.57;;;;;;;;;;5023584;28;20155;-85
2023/06/19 12:51:21;;;;;;;;;;;;;;;;;;;;;
2023/06/19 13:12:23;;;;;;;;;;;;;;;;;;;;;
2023/06/19 13:14:57;;;;;;;7.05;6.30;;;;;;;;;;4797865;29;20065;-87
2023/06/19 13:18:01;;;;;;;11.38;7.57;;;;;;;;;;4803563;29;20513;-87
2023/06/19 13:20:36;;;;;;;7.93;7.13;;;;;;;;;;4808192;29;20179;-87
2023/06/19 13:26:17;;;;;;;12.27;8.63;;;;;;;;;;4792940;29;20053;-88
2023/06/19 13:28:52;;;;;;;7.43;6.40;;;;;;;;;;4804257;29;20046;-87
2023/06/19 13:31:24;;;;;;;11.20;8.02;;;;;;;;;;4794601;29;20038;-88
2023/06/19 13:34:39;;;;;;;9.65;7.60;;;;;;;;;;4782774;29;20420;-87
2023/06/19 13:40:50;;;;;;;7.78;6.50;;;;;;;;;;4725830;30;20121;-87
2023/06/19 13:43:53;;;;;;;8.55;7.70;;;;;;;;;;4728651;30;20684;-87
2023/06/19 13:46:23;;;;;;;10.95;7.97;;;;;;;;;;4728627;30;20067;-87
2023/06/19 13:49:19;;;;;;;6.88;6.28;;;;;;;;;;4742990;30;20059;-86
2023/06/19 13:51:47;;;;;;;6.70;5.95;;;;;;;;;;4689462;30;20095;-87
2023/06/19 14:01:48;;;;;;;7.43;5.90;;;;;;;;;;4790097;29;20067;-86
2023/06/19 14:04:14;;;;;;;6.93;5.57;;;;;;;;;;4793118;29;20050;-86
2023/06/19 14:06:42;;;;;;;7.32;5.35;;;;;;;;;;4806410;29;20451;-86
2023/06/19 14:09:14;;;;;;;7.70;5.40;;;;;;;;;;4817238;29;20069;-85
2023/06/19 14:11:40;;;;;;;7.00;6.30;;;;;;;;;;4808675;29;20046;-86
2023/06/19 14:14:06;;;;;;;8.88;6.13;;;;;;;;;;4814420;29;20037;-85
2023/06/19 14:16:32;;;;;;;6.80;6.13;;;;;;;;;;4796094;29;20045;-86
2023/06/19 14:18:58;;;;;;;6.50;4.90;;;;;;;;;;4812930;29;20490;-86
2023/06/19 14:21:24;;;;;;;6.68;5.97;;;;;;;;;;4813671;29;20045;-86
2023/06/19 14:23:50;;;;;;;6.93;6.05;;;;;;;;;;4809292;29;20049;-86
2023/06/19 14:26:16;;;;;;;6.78;5.60;;;;;;;;;;4819165;29;20302;-86
2023/06/19 14:28:42;;;;;;;5.95;5.35;;;;;;;;;;4818059;29;20458;-87
2023/06/19 14:31:08;;;;;;;6.35;5.72;;;;;;;;;;4802969;29;20046;-86
2023/06/19 14:33:36;;;;;;;6.28;5.10;;;;;;;;;;4810705;29;20038;-86
2023/06/19 14:36:03;;;;;;;7.97;5.10;;;;;;;;;;4806360;29;20832;-86
2023/06/19 14:38:33;;;;;;;6.90;5.28;;;;;;;;;;4792481;29;20477;-86
2023/06/19 14:40:59;;;;;;;6.30;5.63;;;;;;;;;;4802712;29;20054;-85
2023/06/19 14:43:26;;;;;;;8.65;4.78;;;;;;;;;;4802952;29;20069;-86
2023/06/19 14:45:52;;;;;;;8.90;4.68;;;;;;;;;;4778435;29;20051;-86
2023/06/19 14:48:19;;;;;;;6.25;4.43;;;;;;;;;;4798380;29;20055;-87
2023/06/19 14:50:45;;;;;;;5.05;4.50;;;;;;;;;;4793700;29;20046;-86
2023/06/19 14:53:11;;;;;;;5.28;4.78;;;;;;;;;;4785559;29;20099;-86
2023/06/19 14:55:42;;;;;;;7.07;4.90;;;;;;;;;;4798661;29;20044;-86
2023/06/19 14:58:08;;;;;;;6.25;4.40;;;;;;;;;;4788024;29;20058;-86
2023/06/19 15:00:38;;;;;;;5.03;4.10;;;;;;;;;;4811772;29;20145;-85
2023/06/19 15:03:04;;;;;;;4.45;4.05;;;;;;;;;;4811645;29;20041;-85
2023/06/19 15:05:32;;;;;;;4.60;4.20;;;;;;;;;;4808560;29;20046;-85
2023/06/19 15:07:59;;;;;;;5.65;4.50;;;;;;;;;;4814225;29;20065;-87
2023/06/19 15:10:27;;;;;;;5.75;4.93;;;;;;;;;;4813717;29;20053;-86
2023/06/19 15:12:53;;;;;;;;;;;;;;;;;;4789279;29;20085;-88
2023/06/19 15:15:19;;;;;;;5.63;4.50;;;;;;;;;;4811281;29;20030;-87
2023/06/19 15:17:45;;;;;;;5.50;3.95;;;;;;;;;;4779852;29;20082;-86
2023/06/19 15:20:12;;;;;;;4.63;4.25;;;;;;;;;;4796102;29;20046;-86
2023/06/19 15:22:38;;;;;;;5.30;3.70;;;;;;;;;;4818207;29;20085;-87
2023/06/19 15:25:06;;;;;;;4.35;3.92;;;;;;;;;;4780995;29;20539;-87
2023/06/19 15:27:33;;;;;;;4.70;4.15;;;;;;;;;;4810772;29;20066;-87
2023/06/19 15:29:59;;;;;;;5.40;4.30;;;;;;;;;;4799886;29;20080;-87
2023/06/19 15:32:34;;;;;;;4.63;4.22;;;;;;;;;;4808464;29;20058;-88
2023/06/19 15:35:00;;;;;;;5.43;3.72;;;;;;;;;;4796302;29;20083;-86
2023/06/19 15:37:26;;;;;;;4.82;3.70;;;;;;;;;;4819032;29;20041;-87
2023/06/19 15:39:54;;;;;;;4.40;3.88;;;;;;;;;;4806317;29;20045;-86
2023/06/19 15:42:21;;;;;;;3.85;3.55;;;;;;;;;;4814648;29;20049;-86
2023/06/19 15:44:47;;;;;;;4.38;4.05;;;;;;;;;;4780404;29;20049;-87
2023/06/19 15:47:13;;;;;;;4.45;3.88;;;;;;;;;;4817085;29;20062;-87
2023/06/19 15:49:39;;;;;;;4.30;3.90;;;;;;;;;;4799739;29;20134;-86
2023/06/19 15:52:05;;;;;;;4.65;4.25;;;;;;;;;;4803415;29;20050;-87
2023/06/19 15:54:31;;;;;;;5.88;4.22;;;;;;;;;;4799944;29;20286;-87
2023/06/19 15:56:58;;;;;;;5.05;4.22;;;;;;;;;;4810068;29;20109;-87
2023/06/19 15:59:24;;;;;;;5.60;4.22;;;;;;;;;;4812654;29;20083;-87
2023/06/19 16:01:50;;;;;;;5.95;4.10;;;;;;;;;;4806358;29;20045;-87
2023/06/19 16:04:16;;;;;;;6.22;4.20;;;;;;;;;;4823033;29;20041;-87
2023/06/19 16:06:45;;;;;;;5.55;4.10;;;;;;;;;;4813720;29;20069;-87
2023/06/19 16:09:11;;;;;;;5.28;4.70;;;;;;;;;;4811902;29;20077;-86
2023/06/19 16:11:37;;;;;;;4.78;4.28;;;;;;;;;;4813095;29;20102;-87
2023/06/19 16:14:03;;;;;;;5.38;4.68;;;;;;;;;;4788031;29;20417;-86
2023/06/19 16:16:29;;;;;;;4.50;3.80;;;;;;;;;;4802085;29;20076;-86
2023/06/19 16:22:40;;;;;;;4.63;4.13;;;;;;;;;;4759440;29;20056;-86
2023/06/19 16:25:08;;;;;;;5.25;4.10;;;;;;;;;;4812022;29;20115;-87
2023/06/19 16:27:34;;;;;;;4.22;3.83;;;;;;;;;;4791112;29;20050;-86
2023/06/19 16:33:04;;;;;;;4.25;3.85;;;;;;;;;;4814832;29;20406;-87
2023/06/19 16:35:30;;;;;;;4.80;4.10;;;;;;;;;;4821356;29;20098;-86
2023/06/19 16:38:32;;;;;;;5.10;3.88;;;;;;;;;;4797764;29;20074;-87
2023/06/19 16:41:59;;;;;;;4.90;4.00;;;;;;;;;;4746060;29;20048;-86
2023/06/19 16:44:14;;;;;;;5.43;4.30;;;;;;;;;;4760350;29;20706;-86
2023/06/19 16:46:48;;;;;;;4.50;4.03;;;;;;;;;;4799102;29;20188;-86
2023/06/19 16:49:14;;;;;;;5.60;4.38;;;;;;;;;;4787202;29;20582;-86
2023/06/19 16:51:40;;;;;;;5.20;4.35;;;;;;;;;;4810404;29;20088;-86
2023/06/19 16:54:32;;;;;;;5.00;4.50;;;;;;;;;;4797926;29;20105;-85
2023/06/19 17:00:05;;;;;;;4.40;4.00;;;;;;;;;;4800087;29;20525;-85
2023/06/19 17:06:16;;;;;;;5.25;4.68;;;;;;;;;;4748108;29;20061;-86
2023/06/19 17:09:19;;;;;;;4.88;4.47;;;;;;;;;;4797144;29;20050;-86
2023/06/19 17:11:45;;;;;;;6.18;4.35;;;;;;;;;;4810101;29;20087;-86
2023/06/19 17:25:29;;;;;;;5.38;4.32;;;;;;;;;;4822142;29;20422;-83
2023/06/19 17:27:55;;;;;;;5.68;4.63;;;;;;;;;;4818484;29;20493;-86
2023/06/19 17:30:22;;;;;;;4.80;4.30;;;;;;;;;;4835803;29;20038;-85
2023/06/19 17:32:48;;;;;;;5.25;4.75;;;;;;;;;;4813412;29;20113;-86
2023/06/19 17:35:14;;;;;;;5.80;4.57;;;;;;;;;;4820523;29;20137;-86
2023/06/19 17:37:40;;;;;;;5.88;4.95;;;;;;;;;;4825312;29;20079;-85
2023/06/19 17:40:08;;;;;;;6.25;5.25;;;;;;;;;;4821529;29;20735;-85
2023/06/19 17:42:34;;;;;;;5.85;4.28;;;;;;;;;;4822495;29;20165;-85
2023/06/19 17:45:00;;;;;;;7.68;4.90;;;;;;;;;;4819660;29;20050;-87
2023/06/19 17:47:26;;;;;;;5.35;4.80;;;;;;;;;;4829519;29;20045;-85
2023/06/19 17:49:52;;;;;;;6.20;4.32;;;;;;;;;;4814244;29;20057;-86
2023/06/19 17:52:19;;;;;;;4.47;4.07;;;;;;;;;;4813882;29;20498;-86
2023/06/19 17:54:48;;;;;;;5.90;4.80;;;;;;;;;;4814865;29;20431;-88
2023/06/19 17:57:15;;;;;;;5.40;4.90;;;;;;;;;;4840209;29;20049;-86
2023/06/19 17:59:41;;;;;;;5.63;4.22;;;;;;;;;;4821578;29;20074;-87
2023/06/19 18:02:07;;;;;;;7.30;4.72;;;;;;;;;;4816989;29;20535;-87
2023/06/19 18:04:33;;;;;;;5.22;4.57;;;;;;;;;;4821232;29;20085;-87
2023/06/19 18:06:59;;;;;;;6.97;4.63;;;;;;;;;;4822619;29;20057;-87
2023/06/19 18:09:25;;;;;;;4.78;4.38;;;;;;;;;;4820482;29;20046;-87
2023/06/19 18:11:51;;;;;;;6.95;4.43;;;;;;;;;;4825757;29;20085;-88
2023/06/19 18:14:20;;;;;;;5.97;5.07;;;;;;;;;;4825610;29;20037;-87
2023/06/19 18:16:46;;;;;;;5.90;4.78;;;;;;;;;;4817960;29;20143;-88
2023/06/19 18:19:12;;;;;;;5.93;4.80;;;;;;;;;;4824715;29;20052;-87
2023/06/19 18:21:38;;;;;;;5.15;4.65;;;;;;;;;;4824171;29;20056;-87
2023/06/19 18:24:04;;;;;;;5.85;4.60;;;;;;;;;;4819917;29;20066;-87
2023/06/19 18:26:30;;;;;;;6.00;4.68;;;;;;;;;;4818197;29;20101;-88
2023/06/19 18:28:56;;;;;;;5.65;5.05;;;;;;;;;;4819693;29;24310;-87
2023/06/19 18:31:22;;;;;;;6.15;4.55;;;;;;;;;;4822760;29;20079;-87
2023/06/19 18:33:48;;;;;;;5.55;4.63;;;;;;;;;;4837560;29;20397;-88
2023/06/19 18:36:14;;;;;;;7.03;4.90;;;;;;;;;;4824948;29;20044;-87
2023/06/19 18:38:40;;;;;;;7.03;5.32;;;;;;;;;;4825818;29;20129;-87
2023/06/19 18:41:07;;;;;;;5.55;4.78;;;;;;;;;;4803992;29;20081;-87
2023/06/19 18:43:33;;;;;;;6.57;4.65;;;;;;;;;;4810944;29;20053;-87
2023/06/19 18:45:59;;;;;;;5.32;4.90;;;;;;;;;;4809505;29;20048;-88
2023/06/19 18:48:25;;;;;;;6.95;5.47;;;;;;;;;;4803150;29;20482;-87
2023/06/19 18:50:51;;;;;;;5.57;5.05;;;;;;;;;;4815247;29;20046;-87
2023/06/19 18:53:17;;;;;;;5.20;4.68;;;;;;;;;;4806813;29;20058;-87
2023/06/19 18:55:43;;;;;;;5.30;4.75;;;;;;;;;;4819652;29;20071;-88
2023/06/19 18:58:09;;;;;;;6.10;5.13;;;;;;;;;;4822694;29;20049;-88
2023/06/19 19:00:35;;;;;;;6.10;5.00;;;;;;;;;;4815106;29;20046;-87
2023/06/19 19:03:01;;;;;;;7.03;5.10;;;;;;;;;;4807932;29;20492;-88
2023/06/19 19:05:27;;;;;;;5.43;4.72;;;;;;;;;;4819579;29;20077;-88
2023/06/19 19:07:53;;;;;;;7.95;5.07;;;;;;;;;;4799485;29;20046;-87
2023/06/19 19:10:19;;;;;;;6.35;4.82;;;;;;;;;;4817731;29;20038;-87
2023/06/19 19:12:45;;;;;;;5.97;4.97;;;;;;;;;;4817139;29;20101;-88
2023/06/19 19:15:11;;;;;;;6.88;5.15;;;;;;;;;;4823357;29;20054;-87
2023/06/19 19:17:37;;;;;;;5.78;5.20;;;;;;;;;;4828888;29;20042;-87
2023/06/19 19:20:06;;;;;;;6.45;4.50;;;;;;;;;;4820311;29;20054;-87
2023/06/19 19:22:32;;;;;;;5.93;4.88;;;;;;;;;;4818233;29;20489;-88
2023/06/19 19:24:59;;;;;;;5.47;4.97;;;;;;;;;;4794685;29;20066;-88
2023/06/19 19:27:25;;;;;;;5.72;5.13;;;;;;;;;;4808376;29;20098;-87
2023/06/19 19:29:51;;;;;;;5.68;5.10;;;;;;;;;;4819963;29;20042;-88
2023/06/19 19:32:21;;;;;;;6.38;5.20;;;;;;;;;;4818866;29;20046;-87
2023/06/19 19:34:47;;;;;;;7.15;5.65;;;;;;;;;;4805666;29;20550;-86
2023/06/19 19:37:13;;;;;;;6.30;5.70;;;;;;;;;;4829781;29;20114;-87
2023/06/19 19:39:39;;;;;;;6.50;5.13;;;;;;;;;;4822061;29;20038;-87
2023/06/19 19:42:06;;;;;;;6.88;5.28;;;;;;;;;;4817940;29;20046;-87
2023/06/19 19:44:32;;;;;;;8.18;5.57;;;;;;;;;;4802136;29;20053;-87
2023/06/19 19:46:58;;;;;;;6.32;5.45;;;;;;;;;;4838757;29;20072;-87
2023/06/19 19:49:24;;;;;;;6.30;5.40;;;;;;;;;;4805070;29;20057;-86
2023/06/19 19:51:50;;;;;;;6.18;5.57;;;;;;;;;;4802096;29;20045;-86
2023/06/19 19:54:16;;;;;;;7.50;5.53;;;;;;;;;;4817747;29;20038;-87
2023/06/19 20:00:23;;;;;;;6.95;5.65;;;;;;;;;;4824138;29;20410;-92
2023/06/19 20:03:42;;;;;;;;;;;;;;;;;;;;;
2023/06/19 20:10:38;;;;;;;7.10;5.68;;;;;;;;;;4761727;29;20098;-93
2023/06/19 20:14:37;;;;;;;;;;;;;;;;;;;;;
2023/06/19 20:41:48;;;;;;;6.00;5.40;;;;;;;;;;4982879;24;20118;-85
2023/06/19 20:44:17;;;;;;;7.55;6.57;;;;;;;;;;4808182;29;20057;-85
2023/06/19 20:46:43;;;;;;;6.80;5.95;;;;;;;;;;4800511;29;20054;-85
2023/06/19 20:49:10;;;;;;;7.35;6.05;;;;;;;;;;4803569;29;20049;-85
2023/06/19 20:51:39;;;;;;;7.65;6.10;;;;;;;;;;4796388;29;20043;-85
2023/06/19 20:54:05;;;;;;;7.53;6.22;;;;;;;;;;4788881;29;20153;-85
2023/06/19 20:56:31;;;;;;;7.43;6.32;;;;;;;;;;4787746;29;20513;-85
2023/06/19 20:58:57;;;;;;;8.30;6.75;;;;;;;;;;4794694;29;20492;-85
2023/06/19 21:01:24;;;;;;;6.47;5.85;;;;;;;;;;4802889;29;20053;-85
2023/06/19 21:03:50;;;;;;;8.07;6.05;;;;;;;;;;4783797;29;20095;-85
2023/06/19 21:06:20;;;;;;;8.23;6.53;;;;;;;;;;4804105;29;20045;-85
2023/06/19 21:08:49;;;;;;;6.30;5.53;;;;;;;;;;4790906;29;20046;-85
2023/06/19 21:11:16;;;;;;;8.05;6.18;;;;;;;;;;4806895;29;20913;-85
2023/06/19 21:13:45;;;;;;;9.15;6.22;;;;;;;;;;4803607;29;20078;-86
2023/06/19 21:16:11;;;;;;;7.20;6.43;;;;;;;;;;4823578;29;20074;-86
2023/06/19 21:18:38;;;;;;;8.52;6.30;;;;;;;;;;4799940;29;20062;-86
2023/06/19 21:21:04;;;;;;;7.38;6.10;;;;;;;;;;4787485;29;20053;-86